Time;durP1;ratioP1;P1;durP2;ratioP2;P2;SDS_P1;SDS_P2;PMS_P1;PMS_P2;Temp;Humidity;BMP_temperature;BMP_pressure;BME280_temperature;BME280_humidity;BME280_pressure;Samples;Min_cycle;Max_cycle;Signal;HPM_P1;HPM_P2
2023/09/21 00:01:06;;;;;;;2.90;1.63;;;;;;;;;;5060160;28;20107;-60
2023/09/21 00:03:36;;;;;;;3.65;1.73;;;;;;;;;;5061094;28;20107;-60
2023/09/21 00:06:04;;;;;;;2.78;1.88;;;;;;;;;;5061214;28;20063;-60
2023/09/21 00:08:31;;;;;;;3.33;1.98;;;;;;;;;;5061375;28;20095;-60
2023/09/21 00:10:58;;;;;;;3.95;1.90;;;;;;;;;;5066395;28;20063;-60
2023/09/21 00:13:28;;;;;;;2.67;1.73;;;;;;;;;;5062425;28;20136;-60
2023/09/21 00:16:02;;;;;;;3.67;1.73;;;;;;;;;;5077124;28;20102;-61
2023/09/21 00:18:31;;;;;;;2.95;1.92;;;;;;;;;;5081523;28;20056;-61
2023/09/21 00:21:01;;;;;;;2.38;1.58;;;;;;;;;;5061176;28;20053;-60
2023/09/21 00:23:31;;;;;;;2.33;1.90;;;;;;;;;;5061291;28;20583;-60
2023/09/21 00:25:58;;;;;;;3.92;2.33;;;;;;;;;;5042683;28;20081;-59
2023/09/21 00:28:26;;;;;;;4.13;1.83;;;;;;;;;;5054823;28;20052;-60
2023/09/21 00:30:53;;;;;;;3.70;1.83;;;;;;;;;;5060506;28;20057;-60
2023/09/21 00:33:20;;;;;;;3.20;1.75;;;;;;;;;;5065785;28;20053;-61
2023/09/21 00:35:46;;;;;;;9.27;2.13;;;;;;;;;;5065270;28;20095;-61
2023/09/21 00:38:16;;;;;;;2.58;1.55;;;;;;;;;;5053479;28;20064;-60
2023/09/21 00:40:42;;;;;;;3.75;1.60;;;;;;;;;;5061795;28;20061;-60
2023/09/21 00:43:10;;;;;;;3.83;1.65;;;;;;;;;;5065080;28;20566;-60
2023/09/21 00:45:37;;;;;;;2.03;1.65;;;;;;;;;;5065219;28;20049;-60
2023/09/21 00:48:09;;;;;;;3.65;1.83;;;;;;;;;;5066501;28;20634;-60
2023/09/21 00:50:36;;;;;;;1.67;1.48;;;;;;;;;;5063833;28;20128;-58
2023/09/21 00:53:05;;;;;;;3.05;1.77;;;;;;;;;;5064964;28;20053;-60
2023/09/21 00:55:39;;;;;;;3.20;1.63;;;;;;;;;;5063580;28;20043;-61
2023/09/21 00:58:08;;;;;;;4.45;1.75;;;;;;;;;;5051880;28;20137;-59
2023/09/21 01:00:37;;;;;;;4.82;1.70;;;;;;;;;;5063449;28;20510;-60
2023/09/21 01:03:12;;;;;;;2.00;1.50;;;;;;;;;;5065166;28;20045;-58
2023/09/21 01:05:42;;;;;;;3.30;1.90;;;;;;;;;;5064279;28;20150;-61
2023/09/21 01:08:10;;;;;;;2.92;2.05;;;;;;;;;;5065779;28;20147;-60
2023/09/21 01:10:44;;;;;;;2.20;1.60;;;;;;;;;;5064052;28;20587;-60
2023/09/21 01:13:15;;;;;;;4.15;1.90;;;;;;;;;;5064518;28;20053;-60
2023/09/21 01:15:45;;;;;;;2.78;1.75;;;;;;;;;;5064493;28;20053;-60
2023/09/21 01:18:12;;;;;;;4.15;1.55;;;;;;;;;;5065008;28;20428;-59
2023/09/21 01:20:42;;;;;;;4.82;1.88;;;;;;;;;;5051515;28;20052;-60
2023/09/21 01:23:19;;;;;;;4.82;1.83;;;;;;;;;;5063967;28;20081;-60
2023/09/21 01:25:46;;;;;;;1.95;1.50;;;;;;;;;;5065169;28;20053;-60
2023/09/21 01:28:16;;;;;;;2.88;1.55;;;;;;;;;;5068189;28;20045;-60
2023/09/21 01:30:43;;;;;;;2.88;1.80;;;;;;;;;;5064388;28;20073;-60
2023/09/21 01:33:11;;;;;;;3.35;1.67;;;;;;;;;;5064328;28;20101;-59
2023/09/21 01:35:38;;;;;;;6.28;1.80;;;;;;;;;;5064162;28;20049;-60
2023/09/21 01:38:06;;;;;;;3.92;1.83;;;;;;;;;;5057098;28;20064;-60
2023/09/21 01:40:34;;;;;;;2.30;1.65;;;;;;;;;;5063732;28;20057;-60
2023/09/21 01:43:05;;;;;;;4.15;1.60;;;;;;;;;;5063362;28;20056;-60
2023/09/21 01:45:33;;;;;;;4.65;1.80;;;;;;;;;;5059240;28;20054;-61
2023/09/21 01:48:01;;;;;;;5.20;2.08;;;;;;;;;;5045796;28;20061;-60
2023/09/21 01:50:28;;;;;;;4.25;2.05;;;;;;;;;;5057770;28;20144;-59
2023/09/21 01:52:56;;;;;;;2.80;1.50;;;;;;;;;;5063653;28;20049;-60
2023/09/21 01:55:22;;;;;;;3.13;1.80;;;;;;;;;;5064469;28;20064;-60
2023/09/21 01:57:48;;;;;;;3.15;1.50;;;;;;;;;;5062269;28;20092;-59
2023/09/21 02:00:28;;;;;;;1.83;1.40;;;;;;;;;;5044618;28;20064;-60
2023/09/21 02:02:55;;;;;;;6.68;1.92;;;;;;;;;;5064098;28;20084;-60
2023/09/21 02:05:23;;;;;;;2.00;1.65;;;;;;;;;;5063090;28;20064;-58
2023/09/21 02:07:50;;;;;;;4.38;2.03;;;;;;;;;;5044764;28;20057;-60
2023/09/21 02:10:17;;;;;;;4.22;1.65;;;;;;;;;;5044925;28;20502;-59
2023/09/21 02:12:53;;;;;;;3.35;1.70;;;;;;;;;;5063290;28;20167;-60
2023/09/21 02:15:19;;;;;;;4.90;1.90;;;;;;;;;;5064103;28;20049;-60
2023/09/21 02:17:45;;;;;;;2.60;1.73;;;;;;;;;;5063861;28;20146;-60
2023/09/21 02:20:16;;;;;;;2.17;1.52;;;;;;;;;;5064573;28;20056;-59
2023/09/21 02:23:02;;;;;;;3.15;1.80;;;;;;;;;;5064373;28;20478;-60
2023/09/21 02:25:30;;;;;;;2.15;1.45;;;;;;;;;;5057456;28;20061;-60
2023/09/21 02:27:57;;;;;;;3.22;1.50;;;;;;;;;;5079920;28;20055;-60
2023/09/21 02:30:24;;;;;;;3.80;1.40;;;;;;;;;;5065013;28;20628;-60
2023/09/21 02:32:54;;;;;;;4.57;1.63;;;;;;;;;;5064039;28;20048;-60
2023/09/21 02:35:26;;;;;;;4.47;1.70;;;;;;;;;;5062734;28;20053;-60
2023/09/21 02:37:54;;;;;;;3.25;1.77;;;;;;;;;;5044059;28;20111;-60
2023/09/21 02:40:22;;;;;;;3.80;1.60;;;;;;;;;;5060269;28;20462;-60
2023/09/21 02:42:51;;;;;;;3.25;1.80;;;;;;;;;;5063495;28;20565;-60
2023/09/21 02:45:18;;;;;;;1.80;1.40;;;;;;;;;;5064054;28;20056;-60
2023/09/21 02:47:46;;;;;;;3.03;1.60;;;;;;;;;;5063072;28;20511;-59
2023/09/21 02:50:14;;;;;;;6.65;1.92;;;;;;;;;;5062478;28;20053;-60
2023/09/21 02:52:43;;;;;;;1.88;1.30;;;;;;;;;;5063896;28;20053;-60
2023/09/21 02:55:09;;;;;;;3.40;1.73;;;;;;;;;;5063555;28;20053;-60
2023/09/21 02:57:37;;;;;;;3.58;1.65;;;;;;;;;;5061053;28;20060;-60
2023/09/21 03:00:14;;;;;;;3.35;1.52;;;;;;;;;;5062612;28;20064;-59
2023/09/21 03:02:40;;;;;;;2.90;1.60;;;;;;;;;;5060937;28;20135;-60
2023/09/21 03:05:10;;;;;;;4.68;2.05;;;;;;;;;;5062587;28;20537;-60
2023/09/21 03:07:43;;;;;;;3.00;1.70;;;;;;;;;;5058926;28;20483;-60
2023/09/21 03:10:10;;;;;;;2.50;1.80;;;;;;;;;;5058485;28;20057;-60
2023/09/21 03:12:37;;;;;;;3.55;1.90;;;;;;;;;;5061456;28;20499;-60
2023/09/21 03:15:13;;;;;;;3.83;1.88;;;;;;;;;;5064589;28;20525;-61
2023/09/21 03:17:40;;;;;;;2.67;1.58;;;;;;;;;;5060997;28;20053;-60
2023/09/21 03:20:20;;;;;;;3.90;2.00;;;;;;;;;;5095319;28;20551;-60
2023/09/21 03:22:46;;;;;;;3.38;1.70;;;;;;;;;;5062288;28;20565;-60
2023/09/21 03:25:16;;;;;;;1.95;1.73;;;;;;;;;;5063002;28;20060;-61
2023/09/21 03:27:42;;;;;;;6.10;1.80;;;;;;;;;;5059397;28;20056;-60
2023/09/21 03:30:12;;;;;;;2.65;1.50;;;;;;;;;;5063631;28;20512;-60
2023/09/21 03:32:40;;;;;;;2.22;1.50;;;;;;;;;;5062007;28;20060;-61
2023/09/21 03:35:08;;;;;;;6.50;2.67;;;;;;;;;;5063591;28;20064;-60
2023/09/21 03:37:36;;;;;;;1.63;1.52;;;;;;;;;;5062300;28;20048;-60
2023/09/21 03:40:06;;;;;;;3.85;1.73;;;;;;;;;;5059351;28;20060;-60
2023/09/21 03:42:33;;;;;;;3.20;2.03;;;;;;;;;;5058610;28;20136;-60
2023/09/21 03:44:59;;;;;;;2.53;1.73;;;;;;;;;;5045997;28;20500;-61
2023/09/21 03:47:25;;;;;;;3.65;1.77;;;;;;;;;;5055229;28;20596;-60
2023/09/21 03:49:52;;;;;;;3.28;1.90;;;;;;;;;;5061888;28;20053;-60
2023/09/21 03:52:18;;;;;;;2.75;2.05;;;;;;;;;;5061606;28;20053;-60
2023/09/21 03:54:46;;;;;;;10.80;1.98;;;;;;;;;;5062620;28;20130;-60
2023/09/21 03:57:16;;;;;;;4.03;1.80;;;;;;;;;;5060941;28;20610;-60
2023/09/21 03:59:42;;;;;;;4.72;2.10;;;;;;;;;;5062011;28;20053;-58
2023/09/21 04:02:09;;;;;;;2.25;1.77;;;;;;;;;;5061762;28;20049;-60
2023/09/21 04:04:36;;;;;;;3.30;2.00;;;;;;;;;;5062243;28;20486;-59
2023/09/21 04:07:02;;;;;;;4.65;1.75;;;;;;;;;;5063562;28;20580;-60
2023/09/21 04:09:29;;;;;;;2.30;1.70;;;;;;;;;;5066403;28;20053;-57
2023/09/21 04:11:57;;;;;;;4.03;1.88;;;;;;;;;;5065918;28;20087;-60
2023/09/21 04:14:29;;;;;;;3.42;1.90;;;;;;;;;;5066118;28;20060;-59
2023/09/21 04:16:55;;;;;;;3.10;1.90;;;;;;;;;;5065228;28;20199;-60
2023/09/21 04:19:22;;;;;;;4.68;2.10;;;;;;;;;;5065036;28;20278;-60
2023/09/21 04:21:50;;;;;;;1.73;1.50;;;;;;;;;;5064499;28;20511;-60
2023/09/21 04:24:17;;;;;;;3.75;1.75;;;;;;;;;;5066282;28;20149;-61
2023/09/21 04:26:44;;;;;;;3.67;1.83;;;;;;;;;;5063158;28;20053;-58
2023/09/21 04:29:11;;;;;;;4.10;1.85;;;;;;;;;;5058791;28;20103;-60
2023/09/21 04:31:38;;;;;;;6.50;2.20;;;;;;;;;;5065097;28;20052;-61
2023/09/21 04:34:05;;;;;;;4.93;2.05;;;;;;;;;;5066192;28;20511;-60
2023/09/21 04:36:32;;;;;;;2.45;1.70;;;;;;;;;;5062924;28;20053;-60
2023/09/21 04:38:59;;;;;;;5.47;2.08;;;;;;;;;;5065362;28;20059;-61
2023/09/21 04:41:27;;;;;;;3.75;1.77;;;;;;;;;;5065948;28;20092;-60
2023/09/21 04:43:54;;;;;;;3.20;1.90;;;;;;;;;;5065787;28;20056;-60
2023/09/21 04:46:21;;;;;;;2.00;1.80;;;;;;;;;;5064935;28;20053;-60
2023/09/21 04:48:47;;;;;;;3.67;2.08;;;;;;;;;;5064646;28;20456;-60
2023/09/21 04:51:14;;;;;;;2.63;1.63;;;;;;;;;;5064289;28;20057;-60
2023/09/21 04:53:42;;;;;;;3.40;1.75;;;;;;;;;;5064815;28;20503;-60
2023/09/21 04:56:09;;;;;;;2.60;2.00;;;;;;;;;;5064441;28;20050;-60
2023/09/21 04:58:35;;;;;;;2.80;2.00;;;;;;;;;;5049958;28;20060;-59
2023/09/21 05:01:10;;;;;;;3.80;2.00;;;;;;;;;;5052878;28;20053;-60
2023/09/21 05:03:37;;;;;;;3.43;1.90;;;;;;;;;;5064669;28;20049;-59
2023/09/21 05:06:04;;;;;;;3.67;1.95;;;;;;;;;;5064624;28;20053;-61
2023/09/21 05:08:35;;;;;;;2.90;2.00;;;;;;;;;;5064805;28;20122;-61
2023/09/21 05:11:03;;;;;;;3.83;2.25;;;;;;;;;;5065950;28;20053;-61
2023/09/21 05:13:29;;;;;;;3.00;1.63;;;;;;;;;;5065326;28;20057;-60
2023/09/21 05:15:59;;;;;;;5.38;2.78;;;;;;;;;;5064385;28;20488;-60
2023/09/21 05:18:26;;;;;;;3.33;1.77;;;;;;;;;;5062380;28;20053;-60
2023/09/21 05:20:52;;;;;;;3.80;1.70;;;;;;;;;;5065561;28;20053;-60
2023/09/21 05:23:19;;;;;;;4.18;2.20;;;;;;;;;;5063126;28;20053;-60
2023/09/21 05:25:45;;;;;;;4.47;1.75;;;;;;;;;;5065728;28;20059;-60
2023/09/21 05:28:12;;;;;;;5.47;2.20;;;;;;;;;;5057632;28;20418;-60
2023/09/21 05:30:39;;;;;;;2.35;1.88;;;;;;;;;;5063729;28;20049;-60
2023/09/21 05:33:07;;;;;;;6.60;1.80;;;;;;;;;;5064314;28;20053;-62
2023/09/21 05:35:34;;;;;;;5.15;2.22;;;;;;;;;;5064998;28;20124;-61
2023/09/21 05:38:01;;;;;;;5.00;2.05;;;;;;;;;;5064312;28;20111;-60
2023/09/21 05:40:27;;;;;;;10.55;2.60;;;;;;;;;;5064923;28;20515;-59
2023/09/21 05:42:53;;;;;;;2.20;2.00;;;;;;;;;;5064330;28;20830;-60
2023/09/21 05:45:20;;;;;;;4.43;1.80;;;;;;;;;;5061956;28;20528;-60
2023/09/21 05:47:46;;;;;;;2.08;1.88;;;;;;;;;;5072406;28;20576;-60
2023/09/21 05:50:13;;;;;;;3.60;1.90;;;;;;;;;;5085502;28;20159;-60
2023/09/21 05:52:40;;;;;;;3.20;2.05;;;;;;;;;;5068583;28;20052;-60
2023/09/21 05:55:09;;;;;;;3.13;2.50;;;;;;;;;;5064266;28;20146;-60
2023/09/21 05:57:36;;;;;;;5.03;2.28;;;;;;;;;;5062541;28;20076;-60
2023/09/21 06:00:03;;;;;;;3.78;2.28;;;;;;;;;;5063802;28;20103;-59
2023/09/21 06:02:29;;;;;;;3.45;2.10;;;;;;;;;;5063346;28;20048;-61
2023/09/21 06:04:56;;;;;;;2.63;2.05;;;;;;;;;;5079579;28;20053;-61
2023/09/21 06:07:24;;;;;;;5.63;2.42;;;;;;;;;;5066053;28;20057;-61
2023/09/21 06:09:51;;;;;;;3.33;2.50;;;;;;;;;;5064670;28;20411;-61
2023/09/21 06:12:17;;;;;;;4.55;2.30;;;;;;;;;;5064238;28;20092;-61
2023/09/21 06:14:44;;;;;;;5.05;2.45;;;;;;;;;;5063549;28;20422;-61
2023/09/21 06:17:13;;;;;;;3.92;2.53;;;;;;;;;;5062925;28;20092;-61
2023/09/21 06:19:40;;;;;;;6.28;2.90;;;;;;;;;;5064487;28;20499;-61
2023/09/21 06:22:07;;;;;;;5.28;2.47;;;;;;;;;;5062731;28;20060;-62
2023/09/21 06:24:33;;;;;;;3.30;1.92;;;;;;;;;;5058042;28;20065;-61
2023/09/21 06:27:00;;;;;;;3.72;1.98;;;;;;;;;;5056616;28;20052;-61
2023/09/21 06:29:27;;;;;;;4.55;2.15;;;;;;;;;;5062548;28;20132;-62
2023/09/21 06:31:55;;;;;;;3.10;1.92;;;;;;;;;;5062987;28;20053;-61
2023/09/21 06:34:24;;;;;;;2.55;2.03;;;;;;;;;;5061897;28;20057;-61
2023/09/21 06:36:51;;;;;;;3.78;2.22;;;;;;;;;;5061966;28;20136;-58
2023/09/21 06:39:18;;;;;;;4.53;2.22;;;;;;;;;;5061389;28;20060;-61
2023/09/21 06:41:47;;;;;;;3.35;2.15;;;;;;;;;;5061844;28;20053;-61
2023/09/21 06:44:14;;;;;;;5.40;2.33;;;;;;;;;;5063432;28;20056;-61
2023/09/21 06:46:41;;;;;;;2.58;2.00;;;;;;;;;;5062959;28;20110;-61
2023/09/21 06:49:08;;;;;;;7.35;2.58;;;;;;;;;;5062054;28;20055;-61
2023/09/21 06:51:37;;;;;;;4.50;2.67;;;;;;;;;;5063126;28;20057;-62
2023/09/21 06:54:03;;;;;;;4.78;3.85;;;;;;;;;;5095524;28;20063;-60
2023/09/21 06:56:31;;;;;;;6.35;2.70;;;;;;;;;;5048109;28;20053;-60
2023/09/21 06:58:57;;;;;;;4.75;2.22;;;;;;;;;;5062053;28;20515;-60
2023/09/21 07:01:26;;;;;;;4.65;1.60;;;;;;;;;;5060502;28;20053;-60
2023/09/21 07:03:52;;;;;;;3.22;1.40;;;;;;;;;;5061101;28;20545;-59
2023/09/21 07:06:19;;;;;;;3.08;1.00;;;;;;;;;;5059904;28;20057;-60
2023/09/21 07:08:47;;;;;;;1.42;0.80;;;;;;;;;;5062238;28;20147;-59
2023/09/21 07:11:15;;;;;;;4.07;1.75;;;;;;;;;;5062797;28;20084;-59
2023/09/21 07:13:42;;;;;;;2.65;0.88;;;;;;;;;;5061992;28;20061;-59
2023/09/21 07:16:09;;;;;;;1.17;0.80;;;;;;;;;;5054920;28;20057;-58
2023/09/21 07:18:37;;;;;;;2.15;1.23;;;;;;;;;;5061673;28;20064;-57
2023/09/21 07:21:03;;;;;;;1.77;0.95;;;;;;;;;;5062980;28;20057;-57
2023/09/21 07:23:31;;;;;;;2.00;1.17;;;;;;;;;;5060803;28;20052;-57
2023/09/21 07:25:57;;;;;;;1.55;0.90;;;;;;;;;;5060979;28;20145;-59
2023/09/21 07:28:24;;;;;;;1.88;1.17;;;;;;;;;;5060622;28;20049;-59
2023/09/21 07:30:51;;;;;;;4.72;1.10;;;;;;;;;;5060510;28;20479;-59
2023/09/21 07:33:18;;;;;;;4.03;1.20;;;;;;;;;;5058624;28;20057;-57
2023/09/21 07:35:44;;;;;;;4.65;1.30;;;;;;;;;;5065270;28;20072;-59
2023/09/21 07:38:11;;;;;;;3.88;0.82;;;;;;;;;;5060881;28;20581;-59
2023/09/21 07:40:38;;;;;;;1.42;1.10;;;;;;;;;;5060792;28;20587;-59
2023/09/21 07:43:06;;;;;;;2.45;1.08;;;;;;;;;;5061675;28;20052;-59
2023/09/21 07:45:33;;;;;;;2.58;1.10;;;;;;;;;;5061046;28;20135;-58
2023/09/21 07:47:59;;;;;;;1.85;1.17;;;;;;;;;;5061390;28;20143;-58
2023/09/21 07:50:27;;;;;;;3.05;1.15;;;;;;;;;;5060959;28;20049;-58
2023/09/21 07:52:56;;;;;;;2.70;1.17;;;;;;;;;;5060177;28;20057;-59
2023/09/21 07:55:22;;;;;;;1.67;1.00;;;;;;;;;;5060720;28;20057;-59
2023/09/21 07:57:50;;;;;;;3.45;1.08;;;;;;;;;;5060440;28;20358;-58
2023/09/21 08:00:17;;;;;;;1.38;1.10;;;;;;;;;;5053014;28;20050;-60
2023/09/21 08:02:44;;;;;;;2.08;1.00;;;;;;;;;;5061133;28;20106;-59
2023/09/21 08:05:10;;;;;;;4.07;0.95;;;;;;;;;;5061287;28;20144;-59
2023/09/21 08:07:37;;;;;;;2.72;1.08;;;;;;;;;;5059967;28;20063;-59
2023/09/21 08:10:04;;;;;;;1.17;0.90;;;;;;;;;;5062180;28;20507;-59
2023/09/21 08:12:31;;;;;;;2.97;1.10;;;;;;;;;;5062987;28;20559;-58
2023/09/21 08:14:59;;;;;;;2.72;1.25;;;;;;;;;;5060763;28;20254;-60
2023/09/21 08:17:26;;;;;;;3.22;1.00;;;;;;;;;;5061755;28;20107;-58
2023/09/21 08:19:53;;;;;;;2.22;1.20;;;;;;;;;;5059368;28;20056;-59
2023/09/21 08:22:19;;;;;;;1.40;1.30;;;;;;;;;;5061445;28;20107;-59
2023/09/21 08:24:46;;;;;;;3.10;1.60;;;;;;;;;;5059826;28;20065;-59
2023/09/21 08:27:13;;;;;;;1.35;0.93;;;;;;;;;;5058564;28;20045;-60
2023/09/21 08:29:41;;;;;;;2.65;1.08;;;;;;;;;;5058089;28;20569;-59
2023/09/21 08:32:09;;;;;;;4.80;1.30;;;;;;;;;;5050326;28;20108;-60
2023/09/21 08:34:36;;;;;;;1.65;1.02;;;;;;;;;;5048002;28;20551;-59
2023/09/21 08:37:03;;;;;;;4.82;1.23;;;;;;;;;;5061131;28;20055;-60
2023/09/21 08:39:29;;;;;;;4.35;1.33;;;;;;;;;;5073311;28;20068;-60
2023/09/21 08:41:56;;;;;;;2.08;1.13;;;;;;;;;;5059808;28;20059;-60
2023/09/21 08:44:23;;;;;;;4.25;1.08;;;;;;;;;;5061036;28;20496;-60
2023/09/21 08:46:50;;;;;;;1.40;1.00;;;;;;;;;;5058294;28;20068;-59
2023/09/21 08:49:17;;;;;;;4.25;1.13;;;;;;;;;;5060075;28;20049;-60
2023/09/21 08:51:44;;;;;;;2.33;1.10;;;;;;;;;;5059861;28;20111;-59
2023/09/21 08:54:16;;;;;;;2.03;1.13;;;;;;;;;;5065000;28;20142;-60
2023/09/21 08:56:46;;;;;;;3.38;1.30;;;;;;;;;;5063225;28;20049;-60
2023/09/21 08:59:13;;;;;;;1.95;1.08;;;;;;;;;;5062924;28;20162;-60
2023/09/21 09:01:39;;;;;;;4.80;1.58;;;;;;;;;;5056136;28;20045;-60
2023/09/21 09:04:06;;;;;;;2.00;1.30;;;;;;;;;;5046591;28;20522;-58
2023/09/21 09:06:33;;;;;;;5.05;1.92;;;;;;;;;;5053766;28;20583;-60
2023/09/21 09:08:59;;;;;;;4.22;1.60;;;;;;;;;;5064122;28;20060;-58
2023/09/21 09:11:38;;;;;;;2.25;1.60;;;;;;;;;;5063216;28;20057;-60
2023/09/21 09:14:10;;;;;;;3.08;1.33;;;;;;;;;;5065257;28;20045;-60
2023/09/21 09:16:36;;;;;;;3.60;1.63;;;;;;;;;;5059527;28;20464;-59
2023/09/21 09:19:05;;;;;;;4.72;1.40;;;;;;;;;;5064756;28;20103;-60
2023/09/21 09:21:32;;;;;;;6.18;1.85;;;;;;;;;;5062549;28;20053;-59
2023/09/21 09:24:00;;;;;;;3.55;1.67;;;;;;;;;;5062912;28;20061;-58
2023/09/21 09:26:26;;;;;;;5.75;1.80;;;;;;;;;;5063192;28;20143;-59
2023/09/21 09:29:09;;;;;;;3.78;1.65;;;;;;;;;;5070422;28;20571;-59
2023/09/21 09:31:40;;;;;;;5.35;1.55;;;;;;;;;;5062221;28;20504;-54
2023/09/21 09:34:07;;;;;;;3.63;1.35;;;;;;;;;;5063432;28;20052;-59
2023/09/21 09:36:35;;;;;;;3.13;1.70;;;;;;;;;;5061632;28;20057;-59
2023/09/21 09:39:14;;;;;;;3.10;1.38;;;;;;;;;;5062752;28;20084;-58
2023/09/21 09:41:41;;;;;;;3.97;1.50;;;;;;;;;;5054480;28;20136;-58
2023/09/21 09:44:10;;;;;;;4.10;1.77;;;;;;;;;;5063700;28;20138;-58
2023/09/21 09:46:41;;;;;;;6.03;1.60;;;;;;;;;;5061424;28;20570;-58
2023/09/21 09:49:09;;;;;;;3.95;1.38;;;;;;;;;;5063665;28;20065;-59
2023/09/21 09:51:41;;;;;;;2.70;1.70;;;;;;;;;;5053099;28;20049;-59
2023/09/21 09:54:09;;;;;;;3.50;1.58;;;;;;;;;;5063262;28;20166;-59
2023/09/21 09:56:42;;;;;;;2.55;1.52;;;;;;;;;;5060765;28;20111;-59
2023/09/21 09:59:10;;;;;;;1.83;1.10;;;;;;;;;;5063432;28;20486;-59
2023/09/21 10:01:37;;;;;;;3.22;1.20;;;;;;;;;;5063066;28;20056;-58
2023/09/21 10:04:05;;;;;;;1.92;1.10;;;;;;;;;;5063513;28;20543;-58
2023/09/21 10:06:35;;;;;;;2.67;1.10;;;;;;;;;;5060729;28;20059;-58
2023/09/21 10:09:10;;;;;;;1.77;1.10;;;;;;;;;;5063605;28;20218;-58
2023/09/21 10:11:37;;;;;;;;;;;;;;;;;;5063297;28;20088;-58
2023/09/21 10:14:03;;;;;;;3.38;1.38;;;;;;;;;;5062976;28;45846;-59
2023/09/21 10:16:31;;;;;;;4.28;2.50;;;;;;;;;;5061526;28;20400;-58
2023/09/21 10:18:58;;;;;;;2.95;1.13;;;;;;;;;;5063777;28;20056;-58
2023/09/21 10:21:31;;;;;;;2.78;1.20;;;;;;;;;;5061571;28;20048;-57
2023/09/21 10:24:13;;;;;;;3.40;1.70;;;;;;;;;;5062336;28;20195;-59
2023/09/21 10:26:45;;;;;;;3.22;1.23;;;;;;;;;;5060144;28;20406;-59
2023/09/21 10:29:12;;;;;;;1.80;1.00;;;;;;;;;;5063322;28;20522;-59
2023/09/21 10:31:42;;;;;;;1.92;1.00;;;;;;;;;;5061974;28;20056;-58
2023/09/21 10:34:10;;;;;;;0.73;0.73;;;;;;;;;;5063458;28;20240;-58
2023/09/21 10:36:38;;;;;;;3.08;1.30;;;;;;;;;;5060578;28;20049;-57
2023/09/21 10:39:05;;;;;;;1.67;1.05;;;;;;;;;;5058673;28;20122;-58
2023/09/21 10:41:33;;;;;;;2.20;1.38;;;;;;;;;;5062587;28;20341;-59
2023/09/21 10:44:02;;;;;;;3.28;1.30;;;;;;;;;;5062833;28;20115;-58
2023/09/21 10:46:33;;;;;;;3.00;1.42;;;;;;;;;;5058389;28;20057;-58
2023/09/21 10:49:03;;;;;;;2.03;1.30;;;;;;;;;;5062573;28;20057;-58
2023/09/21 10:51:31;;;;;;;1.65;1.10;;;;;;;;;;5061861;28;20057;-59
2023/09/21 10:54:04;;;;;;;4.63;1.23;;;;;;;;;;5063008;28;20107;-58
2023/09/21 10:56:34;;;;;;;2.53;1.23;;;;;;;;;;5053600;28;20558;-58
2023/09/21 10:59:01;;;;;;;4.20;1.08;;;;;;;;;;5062448;28;20686;-59
2023/09/21 11:01:29;;;;;;;2.22;1.20;;;;;;;;;;5059163;28;20497;-59
2023/09/21 11:03:55;;;;;;;3.45;1.00;;;;;;;;;;5059435;28;20057;-60
2023/09/21 11:06:23;;;;;;;5.05;1.38;;;;;;;;;;5059190;28;20114;-58
2023/09/21 11:08:49;;;;;;;4.10;1.60;;;;;;;;;;5061246;28;20053;-59
2023/09/21 11:11:16;;;;;;;3.22;1.60;;;;;;;;;;5061177;28;20064;-59
2023/09/21 11:13:43;;;;;;;1.20;1.00;;;;;;;;;;5062938;28;20142;-58
2023/09/21 11:16:13;;;;;;;2.40;1.17;;;;;;;;;;5061159;28;20088;-59
2023/09/21 11:18:40;;;;;;;2.22;1.17;;;;;;;;;;5060871;28;20052;-59
2023/09/21 11:21:09;;;;;;;1.45;1.00;;;;;;;;;;5060874;28;20053;-59
2023/09/21 11:23:36;;;;;;;1.90;1.17;;;;;;;;;;5060239;28;20467;-58
2023/09/21 11:26:05;;;;;;;1.42;1.00;;;;;;;;;;5061247;28;20510;-59
2023/09/21 11:28:32;;;;;;;2.47;1.20;;;;;;;;;;5061474;28;20056;-58
2023/09/21 11:30:59;;;;;;;1.63;1.33;;;;;;;;;;5059883;28;20052;-58
2023/09/21 11:33:27;;;;;;;2.90;1.40;;;;;;;;;;5061903;28;20053;-59
2023/09/21 11:35:54;;;;;;;3.67;1.30;;;;;;;;;;5062467;28;20048;-60
2023/09/21 11:38:20;;;;;;;3.00;0.98;;;;;;;;;;5061783;28;20172;-59
2023/09/21 11:40:50;;;;;;;2.00;1.40;;;;;;;;;;5059395;28;20056;-59
2023/09/21 11:43:17;;;;;;;1.40;1.10;;;;;;;;;;5059895;28;20098;-59
2023/09/21 11:45:47;;;;;;;2.10;1.17;;;;;;;;;;5078215;28;20056;-58
2023/09/21 11:48:13;;;;;;;2.22;1.05;;;;;;;;;;5065813;28;20086;-59
2023/09/21 11:50:43;;;;;;;1.88;1.10;;;;;;;;;;5067059;28;20049;-58
2023/09/21 11:53:09;;;;;;;1.92;1.10;;;;;;;;;;5054610;28;20056;-59
2023/09/21 11:55:40;;;;;;;1.92;1.23;;;;;;;;;;5061800;28;20053;-59
2023/09/21 11:58:07;;;;;;;2.65;1.13;;;;;;;;;;5061959;28;20053;-56
2023/09/21 12:03:20;;;;;;;;;;;;;;;;;;5060526;28;20064;-55
2023/09/21 12:05:47;;;;;;;2.75;1.02;;;;;;;;;;5059799;28;45662;-59
2023/09/21 12:08:14;;;;;;;1.73;1.05;;;;;;;;;;5059786;28;20049;-56
2023/09/21 12:10:42;;;;;;;3.72;1.77;;;;;;;;;;5060522;28;20049;-58
2023/09/21 12:13:11;;;;;;;2.33;1.23;;;;;;;;;;5055261;28;20150;-59
2023/09/21 12:15:37;;;;;;;1.90;1.27;;;;;;;;;;5059988;28;20061;-59
2023/09/21 12:18:07;;;;;;;2.55;1.00;;;;;;;;;;5059751;28;20057;-60
2023/09/21 12:20:49;;;;;;;1.33;1.05;;;;;;;;;;5059311;28;20057;-60
2023/09/21 12:23:16;;;;;;;2.10;1.48;;;;;;;;;;5058988;28;20063;-59
2023/09/21 12:25:43;;;;;;;4.90;1.58;;;;;;;;;;5058427;28;20053;-58
2023/09/21 12:28:11;;;;;;;4.40;1.35;;;;;;;;;;5060112;28;20049;-59
2023/09/21 12:30:41;;;;;;;5.15;1.75;;;;;;;;;;5064158;28;20064;-59
2023/09/21 12:33:08;;;;;;;2.08;1.45;;;;;;;;;;5060100;28;20319;-59
2023/09/21 12:35:38;;;;;;;2.20;1.80;;;;;;;;;;5073803;28;20060;-58
2023/09/21 12:38:05;;;;;;;3.40;1.75;;;;;;;;;;5063712;28;20053;-59
2023/09/21 12:40:32;;;;;;;2.65;1.50;;;;;;;;;;5065953;28;20064;-59
2023/09/21 12:42:58;;;;;;;2.95;1.90;;;;;;;;;;5064754;28;20061;-60
2023/09/21 12:45:25;;;;;;;1.77;1.42;;;;;;;;;;5064793;28;20176;-60
2023/09/21 12:47:51;;;;;;;3.45;1.38;;;;;;;;;;5063728;28;20052;-59
2023/09/21 12:50:18;;;;;;;3.05;1.50;;;;;;;;;;5063503;28;20059;-60
2023/09/21 12:52:45;;;;;;;2.08;1.80;;;;;;;;;;5056079;28;20061;-60
2023/09/21 12:55:11;;;;;;;1.85;1.35;;;;;;;;;;5064955;28;20119;-60
2023/09/21 12:57:38;;;;;;;2.85;1.88;;;;;;;;;;5060578;28;20056;-59
2023/09/21 13:00:13;;;;;;;3.75;2.10;;;;;;;;;;5063335;28;20513;-59
2023/09/21 13:02:40;;;;;;;2.77;2.03;;;;;;;;;;5063880;28;20049;-59
2023/09/21 13:05:12;;;;;;;2.83;2.15;;;;;;;;;;5063791;28;20510;-59
2023/09/21 13:07:39;;;;;;;2.63;2.00;;;;;;;;;;5063150;28;20067;-58
2023/09/21 13:10:09;;;;;;;3.92;2.15;;;;;;;;;;5057114;28;20123;-60
2023/09/21 13:12:35;;;;;;;2.03;1.73;;;;;;;;;;5063314;28;20053;-61
2023/09/21 13:15:02;;;;;;;4.88;1.60;;;;;;;;;;5065247;28;20503;-59
2023/09/21 13:17:31;;;;;;;2.63;1.05;;;;;;;;;;5064406;28;20057;-60
2023/09/21 13:19:58;;;;;;;2.20;1.45;;;;;;;;;;5062524;28;20057;-59
2023/09/21 13:22:25;;;;;;;2.33;1.60;;;;;;;;;;5057396;28;20132;-59
2023/09/21 13:24:54;;;;;;;9.10;1.90;;;;;;;;;;5054135;28;20634;-60
2023/09/21 13:27:21;;;;;;;17.23;2.78;;;;;;;;;;5064201;28;20442;-60
2023/09/21 13:29:48;;;;;;;17.30;2.97;;;;;;;;;;5063320;28;20075;-60
2023/09/21 13:32:15;;;;;;;4.22;1.65;;;;;;;;;;5063040;28;20531;-60
2023/09/21 13:34:41;;;;;;;1.60;1.50;;;;;;;;;;5061807;28;20096;-59
2023/09/21 13:37:08;;;;;;;4.53;1.90;;;;;;;;;;5059312;28;21130;-60
2023/09/21 13:39:35;;;;;;;2.53;2.13;;;;;;;;;;5060949;28;20084;-60
2023/09/21 13:42:02;;;;;;;6.07;2.30;;;;;;;;;;5063447;28;20049;-60
2023/09/21 13:44:29;;;;;;;7.00;2.30;;;;;;;;;;5059127;28;20155;-59
2023/09/21 13:46:57;;;;;;;4.72;2.38;;;;;;;;;;5064089;28;20788;-60
2023/09/21 13:49:28;;;;;;;4.63;2.65;;;;;;;;;;5062585;28;20056;-60
2023/09/21 13:51:54;;;;;;;2.83;1.75;;;;;;;;;;5063370;28;20166;-60
2023/09/21 13:54:21;;;;;;;4.10;2.88;;;;;;;;;;5061755;28;20602;-58
2023/09/21 13:56:48;;;;;;;4.25;2.15;;;;;;;;;;5059072;28;20380;-60
2023/09/21 13:59:18;;;;;;;3.30;2.35;;;;;;;;;;5062095;28;20055;-60
2023/09/21 14:01:44;;;;;;;4.07;2.20;;;;;;;;;;5063144;28;20049;-59
2023/09/21 14:04:11;;;;;;;4.47;1.90;;;;;;;;;;5065689;28;20076;-60
2023/09/21 14:06:38;;;;;;;4.75;2.17;;;;;;;;;;5061827;28;20053;-60
2023/09/21 14:09:05;;;;;;;3.55;1.80;;;;;;;;;;5062726;28;20048;-59
2023/09/21 14:11:31;;;;;;;3.95;2.20;;;;;;;;;;5063561;28;20055;-60
2023/09/21 14:13:58;;;;;;;3.33;2.35;;;;;;;;;;5062272;28;20396;-59
2023/09/21 14:16:25;;;;;;;4.03;2.22;;;;;;;;;;5064302;28;20141;-58
2023/09/21 14:18:51;;;;;;;3.90;1.95;;;;;;;;;;5062074;28;20057;-60
2023/09/21 14:21:20;;;;;;;2.90;1.98;;;;;;;;;;5062514;28;20056;-59
2023/09/21 14:23:47;;;;;;;2.28;2.08;;;;;;;;;;5058625;28;20587;-60
2023/09/21 14:26:14;;;;;;;2.15;1.75;;;;;;;;;;5062853;28;20057;-60
2023/09/21 14:28:40;;;;;;;5.30;2.40;;;;;;;;;;5060466;28;20058;-60
2023/09/21 14:31:07;;;;;;;3.58;2.22;;;;;;;;;;5063793;28;21259;-60
2023/09/21 14:33:35;;;;;;;3.15;2.03;;;;;;;;;;5062435;28;20053;-59
2023/09/21 14:36:03;;;;;;;3.05;2.40;;;;;;;;;;5061987;28;20643;-59
2023/09/21 14:38:30;;;;;;;2.72;2.47;;;;;;;;;;5061387;28;20057;-59
2023/09/21 14:40:57;;;;;;;2.72;2.08;;;;;;;;;;5063230;28;20315;-58
2023/09/21 14:43:23;;;;;;;4.75;2.38;;;;;;;;;;5061138;28;20143;-60
2023/09/21 14:45:49;;;;;;;3.55;2.40;;;;;;;;;;5061167;28;20154;-60
2023/09/21 14:48:16;;;;;;;4.45;2.50;;;;;;;;;;5059309;28;20048;-59
2023/09/21 14:50:43;;;;;;;5.38;2.63;;;;;;;;;;5059119;28;20447;-60